Time,TemperatureF,DewpointF,PressureIn,WindDirection,WindDirectionDegrees,WindSpeedMPH,WindSpeedGustMPH,Humidity,HourlyPrecipIn,Conditions,Clouds,dailyrainin,SolarRadiationWatts/m^2,SoftwareType,DateUTC
2013-10-05 00:23:00,31.0,31.0,-100.00,NE,56,0.0,0.0,100,0.00,,,0.00,0.000000,,2013-10-05 08:23:00,
2013-10-05 00:32:00,31.0,31.0,-100.00,NE,56,0.0,0.0,100,0.00,,,0.00,0.000000,,2013-10-05 08:32:00,
2013-10-05 00:42:00,31.0,31.0,-100.00,NE,56,0.0,0.0,100,0.00,,,0.00,0.000000,,2013-10-05 08:42:00,
2013-10-05 00:52:00,31.0,31.0,-100.00,NE,56,0.0,0.0,100,0.00,,,0.00,0.000000,,2013-10-05 08:52:00,
2013-10-05 01:21:00,30.0,30.0,-100.00,NE,53,0.0,0.0,100,0.00,,,0.00,0.000000,,2013-10-05 09:21:00,
2013-10-05 01:33:00,30.0,30.0,-100.00,NE,53,0.0,0.0,100,0.00,,,0.00,0.000000,,2013-10-05 09:33:00,
2013-10-05 01:43:00,30.0,30.0,-100.00,NE,53,0.0,0.0,100,0.00,,,0.00,0.000000,,2013-10-05 09:43:00,
2013-10-05 01:54:00,30.0,30.0,-100.00,NE,53,0.0,0.0,100,0.00,,,0.00,0.000000,,2013-10-05 09:54:00,
2013-10-05 02:23:00,29.0,29.0,-100.00,NE,53,0.0,0.0,100,0.00,,,0.00,0.000000,,2013-10-05 10:23:00,
2013-10-05 02:32:00,29.0,29.0,-100.00,NE,53,0.0,0.0,100,0.00,,,0.00,0.000000,,2013-10-05 10:32:00,
2013-10-05 02:43:00,29.0,29.0,-100.00,NE,53,0.0,0.0,100,0.00,,,0.00,0.000000,,2013-10-05 10:43:00,
2013-10-05 02:53:00,29.0,29.0,-100.00,NE,53,0.0,0.0,100,0.00,,,0.00,0.000000,,2013-10-05 10:53:00,
2013-10-05 03:22:00,30.0,30.0,-100.00,NE,53,0.0,0.0,100,0.00,,,0.00,0.000000,,2013-10-05 11:22:00,
2013-10-05 03:33:00,30.0,30.0,-100.00,NE,53,0.0,0.0,100,0.00,,,0.00,0.000000,,2013-10-05 11:33:00,
2013-10-05 03:42:00,30.0,30.0,-100.00,NE,53,0.0,0.0,100,0.00,,,0.00,0.000000,,2013-10-05 11:42:00,
2013-10-05 03:52:00,30.0,30.0,-100.00,NE,53,0.0,0.0,100,0.00,,,0.00,0.000000,,2013-10-05 11:52:00,
2013-10-05 04:22:00,29.0,29.0,-100.00,North,0,0.0,1.0,100,0.00,,,0.00,0.000000,,2013-10-05 12:22:00,
2013-10-05 04:32:00,29.0,29.0,-100.00,North,0,0.0,1.0,100,0.00,,,0.00,0.000000,,2013-10-05 12:32:00,
2013-10-05 04:42:00,29.0,29.0,-100.00,North,0,0.0,1.0,100,0.00,,,0.00,0.000000,,2013-10-05 12:42:00,
2013-10-05 04:52:00,29.0,29.0,-100.00,North,0,0.0,1.0,100,0.00,,,0.00,0.000000,,2013-10-05 12:52:00,
2013-10-05 05:22:00,29.0,29.0,-100.00,East,99,0.0,1.0,100,0.00,,,0.00,0.000000,,2013-10-05 13:22:00,
2013-10-05 05:32:00,29.0,29.0,-100.00,East,99,0.0,1.0,100,0.00,,,0.00,0.000000,,2013-10-05 13:32:00,
2013-10-05 05:42:00,29.0,29.0,-100.00,East,99,0.0,1.0,100,0.00,,,0.00,0.000000,,2013-10-05 13:42:00,
2013-10-05 05:52:00,29.0,29.0,-100.00,East,99,0.0,1.0,100,0.00,,,0.00,0.000000,,2013-10-05 13:52:00,
2013-10-05 06:22:00,30.0,30.0,-100.00,NE,41,0.0,0.0,100,0.00,,,0.00,0.000000,,2013-10-05 14:22:00,
2013-10-05 06:32:00,30.0,30.0,-100.00,NE,41,0.0,0.0,100,0.00,,,0.00,0.000000,,2013-10-05 14:32:00,
2013-10-05 06:42:00,30.0,30.0,-100.00,NE,41,0.0,0.0,100,0.00,,,0.00,0.000000,,2013-10-05 14:42:00,
2013-10-05 06:52:00,30.0,30.0,-100.00,NE,41,0.0,0.0,100,0.00,,,0.00,0.000000,,2013-10-05 14:52:00,
2013-10-05 07:22:00,30.0,30.0,-100.00,North,359,0.0,2.0,100,0.00,,,0.00,0.000000,,2013-10-05 15:22:00,
2013-10-05 07:33:00,30.0,30.0,-100.00,North,359,0.0,2.0,100,0.00,,,0.00,0.000000,,2013-10-05 15:33:00,
2013-10-05 07:44:00,30.0,30.0,-100.00,North,359,0.0,2.0,100,0.00,,,0.00,0.000000,,2013-10-05 15:44:00,
2013-10-05 07:53:00,30.0,30.0,-100.00,North,359,0.0,2.0,100,0.00,,,0.00,0.000000,,2013-10-05 15:53:00,
2013-10-05 08:23:00,31.0,31.0,-100.00,North,2,0.0,0.0,100,0.00,,,0.00,0.000000,,2013-10-05 16:23:00,
2013-10-05 08:33:00,31.0,31.0,-100.00,North,2,0.0,0.0,100,0.00,,,0.00,0.000000,,2013-10-05 16:33:00,
2013-10-05 08:43:00,31.0,31.0,-100.00,North,2,0.0,0.0,100,0.00,,,0.00,0.000000,,2013-10-05 16:43:00,
2013-10-05 08:53:00,31.0,31.0,-100.00,North,2,0.0,0.0,100,0.00,,,0.00,0.000000,,2013-10-05 16:53:00,
2013-10-05 09:22:00,32.0,32.0,-100.00,WSW,257,0.0,1.0,100,0.00,,,0.00,5.000000,,2013-10-05 17:22:00,
2013-10-05 09:33:00,32.0,32.0,-100.00,WSW,257,0.0,1.0,100,0.00,,,0.00,5.000000,,2013-10-05 17:33:00,
2013-10-05 09:42:00,32.0,32.0,-100.00,WSW,257,0.0,1.0,100,0.00,,,0.00,5.000000,,2013-10-05 17:42:00,
2013-10-05 09:52:00,32.0,32.0,-100.00,WSW,257,0.0,1.0,100,0.00,,,0.00,5.000000,,2013-10-05 17:52:00,
2013-10-05 10:22:00,34.0,34.0,-100.00,NW,309,0.0,0.0,100,0.00,,,-99.99,51.000000,,2013-10-05 18:22:00,
2013-10-05 10:32:00,34.0,34.0,-100.00,NW,309,0.0,0.0,100,0.00,,,-99.99,51.000000,,2013-10-05 18:32:00,
2013-10-05 10:42:00,34.0,34.0,-100.00,NW,309,0.0,0.0,100,0.00,,,-99.99,51.000000,,2013-10-05 18:42:00,
2013-10-05 10:52:00,34.0,34.0,-100.00,NW,309,0.0,0.0,100,0.00,,,-99.99,51.000000,,2013-10-05 18:52:00,
2013-10-05 11:22:00,39.0,39.0,-100.00,NW,307,0.0,1.0,100,0.00,,,0.00,93.000000,,2013-10-05 19:22:00,
2013-10-05 11:32:00,39.0,39.0,-100.00,NW,307,0.0,1.0,100,0.00,,,0.00,93.000000,,2013-10-05 19:32:00,
2013-10-05 11:42:00,39.0,39.0,-100.00,NW,307,0.0,1.0,100,0.00,,,0.00,93.000000,,2013-10-05 19:42:00,
2013-10-05 11:52:00,39.0,39.0,-100.00,NW,307,0.0,1.0,100,0.00,,,0.00,93.000000,,2013-10-05 19:52:00,
2013-10-05 12:22:00,43.0,43.0,-100.00,West,280,0.0,2.0,100,0.00,,,0.00,130.000000,,2013-10-05 20:22:00,
2013-10-05 12:32:00,43.0,43.0,-100.00,West,280,0.0,2.0,100,0.00,,,0.00,130.000000,,2013-10-05 20:32:00,
2013-10-05 12:42:00,43.0,43.0,-100.00,West,280,0.0,2.0,100,0.00,,,0.00,130.000000,,2013-10-05 20:42:00,
2013-10-05 12:52:00,43.0,43.0,-100.00,West,280,0.0,2.0,100,0.00,,,0.00,130.000000,,2013-10-05 20:52:00,
2013-10-05 13:21:00,49.0,45.0,-100.00,SSW,207,1.0,9.0,85,0.00,,,0.00,171.000000,,2013-10-05 21:21:00,
2013-10-05 13:33:00,49.0,45.0,-100.00,SSW,207,1.0,9.0,85,0.00,,,0.00,171.000000,,2013-10-05 21:33:00,
2013-10-05 13:44:00,49.0,45.0,-100.00,SSW,207,1.0,9.0,85,0.00,,,0.00,171.000000,,2013-10-05 21:44:00,
2013-10-05 13:54:00,49.0,45.0,-100.00,SSW,207,1.0,9.0,85,0.00,,,0.00,171.000000,,2013-10-05 21:54:00,
2013-10-05 14:24:00,51.0,43.0,-100.00,South,176,3.0,10.0,75,0.00,,,0.00,214.000000,,2013-10-05 22:24:00,
2013-10-05 14:33:00,51.0,43.0,-100.00,South,176,3.0,10.0,75,0.00,,,0.00,214.000000,,2013-10-05 22:33:00,
2013-10-05 14:42:00,51.0,43.0,-100.00,South,176,3.0,10.0,75,0.00,,,0.00,214.000000,,2013-10-05 22:42:00,
2013-10-05 14:53:00,51.0,43.0,-100.00,South,176,3.0,10.0,75,0.00,,,0.00,214.000000,,2013-10-05 22:53:00,
2013-10-05 15:22:00,51.0,43.0,-100.00,South,188,2.0,9.0,75,0.00,,,0.00,188.000000,,2013-10-05 23:22:00,
2013-10-05 15:33:00,51.0,43.0,-100.00,South,188,2.0,9.0,75,0.00,,,0.00,188.000000,,2013-10-05 23:33:00,
2013-10-05 15:42:00,51.0,43.0,-100.00,South,188,2.0,9.0,75,0.00,,,0.00,188.000000,,2013-10-05 23:42:00,
2013-10-05 15:53:00,51.0,43.0,-100.00,South,188,2.0,9.0,75,0.00,,,0.00,188.000000,,2013-10-05 23:53:00,
2013-10-05 16:23:00,49.0,42.0,-100.00,SSE,155,2.0,6.0,78,0.00,,,0.00,79.000000,,2013-10-06 00:23:00,
2013-10-05 16:32:00,49.0,42.0,-100.00,SSE,155,2.0,6.0,78,0.00,,,0.00,79.000000,,2013-10-06 00:32:00,
2013-10-05 16:43:00,49.0,42.0,-100.00,SSE,155,2.0,6.0,78,0.00,,,0.00,79.000000,,2013-10-06 00:43:00,
2013-10-05 16:52:00,49.0,42.0,-100.00,SSE,155,2.0,6.0,78,0.00,,,0.00,79.000000,,2013-10-06 00:52:00,
2013-10-05 17:22:00,47.0,43.0,-100.00,SSE,155,3.0,10.0,86,0.00,,,0.00,71.000000,,2013-10-06 01:22:00,
2013-10-05 17:32:00,47.0,43.0,-100.00,SSE,155,3.0,10.0,86,0.00,,,0.00,71.000000,,2013-10-06 01:32:00,
2013-10-05 17:42:00,47.0,43.0,-100.00,SSE,155,3.0,10.0,86,0.00,,,0.00,71.000000,,2013-10-06 01:42:00,
2013-10-05 17:52:00,47.0,43.0,-100.00,SSE,155,3.0,10.0,86,0.00,,,0.00,71.000000,,2013-10-06 01:52:00,
2013-10-05 18:22:00,46.0,42.0,-100.00,ESE,117,2.0,8.0,85,0.00,,,0.00,37.000000,,2013-10-06 02:22:00,
2013-10-05 18:32:00,46.0,42.0,-100.00,ESE,117,2.0,8.0,85,0.00,,,0.00,37.000000,,2013-10-06 02:32:00,
2013-10-05 18:42:00,46.0,42.0,-100.00,ESE,117,2.0,8.0,85,0.00,,,0.00,37.000000,,2013-10-06 02:42:00,
2013-10-05 18:52:00,46.0,42.0,-100.00,ESE,117,2.0,8.0,85,0.00,,,0.00,37.000000,,2013-10-06 02:52:00,
2013-10-05 19:22:00,45.0,41.0,-100.00,SSE,156,3.0,11.0,85,0.00,,,0.00,19.000000,,2013-10-06 03:22:00,
2013-10-05 19:34:00,45.0,41.0,-100.00,SSE,156,3.0,11.0,85,0.00,,,0.00,19.000000,,2013-10-06 03:34:00,
2013-10-05 19:44:00,45.0,41.0,-100.00,SSE,156,3.0,11.0,85,0.00,,,0.00,19.000000,,2013-10-06 03:44:00,
2013-10-05 19:54:00,45.0,41.0,-100.00,SSE,156,3.0,11.0,85,0.00,,,0.00,19.000000,,2013-10-06 03:54:00,
2013-10-05 20:24:00,44.0,40.0,-100.00,South,177,2.0,8.0,85,0.00,,,0.00,3.000000,,2013-10-06 04:24:00,
2013-10-05 20:34:00,44.0,40.0,-100.00,South,177,2.0,8.0,85,0.00,,,0.00,3.000000,,2013-10-06 04:34:00,
2013-10-05 20:44:00,44.0,40.0,-100.00,South,177,2.0,8.0,85,0.00,,,0.00,3.000000,,2013-10-06 04:44:00,
2013-10-05 20:54:00,44.0,40.0,-100.00,South,177,2.0,8.0,85,0.00,,,0.00,3.000000,,2013-10-06 04:54:00,
2013-10-05 21:22:00,44.0,40.0,-100.00,ESE,111,2.0,8.0,86,0.00,,,0.00,0.000000,,2013-10-06 05:22:00,
2013-10-05 21:33:00,44.0,40.0,-100.00,ESE,111,2.0,8.0,86,0.00,,,0.00,0.000000,,2013-10-06 05:33:00,
2013-10-05 21:42:00,44.0,40.0,-100.00,ESE,111,2.0,8.0,86,0.00,,,0.00,0.000000,,2013-10-06 05:42:00,
2013-10-05 21:52:00,44.0,40.0,-100.00,ESE,111,2.0,8.0,86,0.00,,,0.00,0.000000,,2013-10-06 05:52:00,
2013-10-05 22:22:00,43.0,41.0,-100.00,SSE,151,3.0,9.0,91,0.00,,,0.00,0.000000,,2013-10-06 06:22:00,
2013-10-05 22:32:00,43.0,41.0,-100.00,SSE,151,3.0,9.0,91,0.00,,,0.00,0.000000,,2013-10-06 06:32:00,
2013-10-05 22:42:00,43.0,41.0,-100.00,SSE,151,3.0,9.0,91,0.00,,,0.00,0.000000,,2013-10-06 06:42:00,
2013-10-05 22:52:00,43.0,41.0,-100.00,SSE,151,3.0,9.0,91,0.00,,,0.00,0.000000,,2013-10-06 06:52:00,
2013-10-05 23:22:00,42.0,40.0,-100.00,SE,132,3.0,9.0,91,0.00,,,0.00,0.000000,,2013-10-06 07:22:00,
2013-10-05 23:32:00,42.0,40.0,-100.00,SE,132,3.0,9.0,91,0.00,,,0.00,0.000000,,2013-10-06 07:32:00,
2013-10-05 23:42:00,42.0,40.0,-100.00,SE,132,3.0,9.0,91,0.00,,,0.00,0.000000,,2013-10-06 07:42:00,
2013-10-05 23:52:00,42.0,40.0,-100.00,SE,132,3.0,9.0,91,0.00,,,0.00,0.000000,,2013-10-06 07:52:00,